createdAt,value
2017-11-13T00:00:54.408Z,16.42
2017-11-13T00:03:22.579Z,46.45
2017-11-13T00:05:51.908Z,27.95
2017-11-13T00:08:20.924Z,32.75
2017-11-13T00:10:49.269Z,15.88
2017-11-13T00:13:18.223Z,14.50
2017-11-13T00:15:46.390Z,15.23
2017-11-13T00:18:14.528Z,16.05
2017-11-13T00:20:43.440Z,14.82
2017-11-13T00:23:12.402Z,16.85
2017-11-13T00:25:41.334Z,14.95
2017-11-13T00:28:09.504Z,15.95
2017-11-13T00:30:37.659Z,14.23
2017-11-13T00:33:05.811Z,15.77
2017-11-13T00:35:34.753Z,15.05
2017-11-13T00:38:02.916Z,14.75
2017-11-13T00:40:31.085Z,16.50
2017-11-13T00:42:59.246Z,16.23
2017-11-13T00:45:27.400Z,14.63
2017-11-13T00:47:56.336Z,14.15
2017-11-13T00:50:24.721Z,15.52
2017-11-13T00:52:52.888Z,15.65
2017-11-13T00:55:21.051Z,15.10
2017-11-13T00:57:49.737Z,14.73
2017-11-13T01:00:17.893Z,13.10
2017-11-13T01:02:46.068Z,10.30
2017-11-13T01:05:14.217Z,11.68
2017-11-13T01:07:43.467Z,9.60
2017-11-13T01:10:11.620Z,9.80
2017-11-13T01:12:39.781Z,8.80
2017-11-13T01:15:07.912Z,8.38
2017-11-13T01:17:36.082Z,7.28
2017-11-13T01:20:04.232Z,7.35
2017-11-13T01:22:32.426Z,8.73
2017-11-13T01:25:00.577Z,6.68
2017-11-13T01:27:29.336Z,7.07
2017-11-13T01:29:57.505Z,7.75
2017-11-13T01:32:25.705Z,7.45
2017-11-13T01:34:53.871Z,7.32
2017-11-13T01:37:22.132Z,6.60
2017-11-13T01:39:50.300Z,6.50
2017-11-13T01:42:18.501Z,6.65
2017-11-13T01:44:46.680Z,6.78
2017-11-13T01:47:14.856Z,5.87
2017-11-13T01:49:43.849Z,6.50
2017-11-13T01:52:11.997Z,6.62
2017-11-13T01:54:40.202Z,5.55
2017-11-13T01:57:08.341Z,6.35
2017-11-13T01:59:36.521Z,6.70
2017-11-13T02:02:04.664Z,6.05
2017-11-13T02:04:32.824Z,6.82
2017-11-13T02:07:01.726Z,6.82
2017-11-13T02:09:29.873Z,6.05
2017-11-13T02:11:58.850Z,5.95
2017-11-13T02:14:27.021Z,5.85
2017-11-13T02:16:55.173Z,6.75
2017-11-13T02:19:23.332Z,6.40
2017-11-13T02:21:51.484Z,6.43
2017-11-13T02:24:19.632Z,6.20
2017-11-13T02:26:48.549Z,6.55
2017-11-13T02:29:16.688Z,6.40
2017-11-13T02:31:44.860Z,6.20
2017-11-13T02:34:13.074Z,6.18
2017-11-13T02:36:41.236Z,7.40
2017-11-13T02:39:09.373Z,7.05
2017-11-13T02:41:37.537Z,7.93
2017-11-13T02:44:05.700Z,6.97
2017-11-13T02:46:33.853Z,6.50
2017-11-13T02:49:02.030Z,7.45
2017-11-13T02:51:30.177Z,8.40
2017-11-13T02:53:58.349Z,7.93
2017-11-13T02:56:27.207Z,7.43
2017-11-13T02:58:56.120Z,7.60
2017-11-13T03:01:25.342Z,7.97
2017-11-13T03:03:53.553Z,8.30
2017-11-13T03:06:21.701Z,8.93
2017-11-13T03:08:50.092Z,9.23
2017-11-13T03:11:18.252Z,9.48
2017-11-13T03:13:46.416Z,8.18
2017-11-13T03:16:15.297Z,9.10
2017-11-13T03:18:43.496Z,8.07
2017-11-13T03:21:11.632Z,9.50
2017-11-13T03:23:39.787Z,8.90
2017-11-13T03:26:08.348Z,9.50
2017-11-13T03:28:36.531Z,9.73
2017-11-13T03:31:05.481Z,8.77
2017-11-13T03:33:33.645Z,10.05
2017-11-13T03:36:01.794Z,10.07
2017-11-13T03:38:30.010Z,11.27
2017-11-13T03:40:58.160Z,11.85
2017-11-13T03:43:26.313Z,10.30
2017-11-13T03:45:54.475Z,10.40
2017-11-13T03:48:22.625Z,11.12
2017-11-13T03:50:52.305Z,11.38
2017-11-13T03:53:20.451Z,11.23
2017-11-13T03:55:48.636Z,11.73
2017-11-13T03:58:16.793Z,12.82
2017-11-13T04:00:44.965Z,12.07
2017-11-13T04:03:13.106Z,11.45
2017-11-13T04:05:42.030Z,11.00
2017-11-13T04:08:10.168Z,11.50
2017-11-13T04:10:39.093Z,12.88
2017-11-13T04:13:07.241Z,14.18
2017-11-13T04:15:35.405Z,11.55
2017-11-13T04:18:04.749Z,11.48
2017-11-13T04:20:32.934Z,9.63
2017-11-13T04:23:01.098Z,12.15
2017-11-13T04:25:29.248Z,10.57
2017-11-13T04:27:57.425Z,10.27
2017-11-13T04:30:25.583Z,11.02
2017-11-13T04:32:53.744Z,9.43
2017-11-13T04:35:22.663Z,8.98
2017-11-13T04:37:50.837Z,7.70
2017-11-13T04:40:18.985Z,7.30
2017-11-13T04:42:47.165Z,6.30
2017-11-13T04:45:15.314Z,5.75
2017-11-13T04:47:44.760Z,6.35
2017-11-13T04:50:12.914Z,6.30
2017-11-13T04:52:41.092Z,5.40
2017-11-13T04:55:09.234Z,6.28
2017-11-13T04:57:38.164Z,6.55
2017-11-13T05:00:06.383Z,5.72
2017-11-13T05:02:34.541Z,5.30
2017-11-13T05:05:02.694Z,5.62
2017-11-13T05:07:30.844Z,5.30
2017-11-13T05:09:59.025Z,6.35
2017-11-13T05:12:27.184Z,4.62
2017-11-13T05:14:55.342Z,5.47
2017-11-13T05:17:24.363Z,4.75
2017-11-13T05:19:52.528Z,4.97
2017-11-13T05:22:20.685Z,4.47
2017-11-13T05:24:48.844Z,3.70
2017-11-13T05:27:18.468Z,3.67
2017-11-13T05:29:46.676Z,3.50
2017-11-13T05:32:15.077Z,3.40
2017-11-13T05:34:43.330Z,4.25
2017-11-13T05:37:11.482Z,3.30
2017-11-13T05:39:39.711Z,3.70
2017-11-13T05:42:08.069Z,4.05
2017-11-13T05:44:36.242Z,3.30
2017-11-13T05:47:04.386Z,3.75
2017-11-13T05:49:32.535Z,4.87
2017-11-13T05:52:01.473Z,4.25
2017-11-13T05:54:29.634Z,3.80
2017-11-13T05:56:57.781Z,4.30
2017-11-13T05:59:25.939Z,4.40
2017-11-13T06:01:54.881Z,3.65
2017-11-13T06:04:23.024Z,4.00
2017-11-13T06:06:51.179Z,4.70
2017-11-13T06:09:20.089Z,4.85
2017-11-13T06:11:48.281Z,5.07
2017-11-13T06:14:16.429Z,6.53
2017-11-13T06:16:44.633Z,5.30
2017-11-13T06:19:12.795Z,6.62
2017-11-13T06:21:40.959Z,8.38
2017-11-13T06:24:09.201Z,8.23
2017-11-13T06:26:48.340Z,8.20
2017-11-13T06:29:16.542Z,9.15
2017-11-13T06:31:44.726Z,8.93
2017-11-13T06:34:12.895Z,9.35
2017-11-13T06:36:41.078Z,9.18
2017-11-13T06:39:09.239Z,11.88
2017-11-13T06:41:37.511Z,10.18
2017-11-13T06:44:05.666Z,10.15
2017-11-13T06:46:33.820Z,11.15
2017-11-13T06:49:02.748Z,11.98
2017-11-13T06:51:30.897Z,12.15
2017-11-13T06:53:59.060Z,12.65
2017-11-13T06:56:27.213Z,13.38
2017-11-13T06:58:56.145Z,11.95
2017-11-13T07:01:24.437Z,14.57
2017-11-13T07:03:52.609Z,15.05
2017-11-13T07:06:20.760Z,13.57
2017-11-13T07:08:48.932Z,15.40
2017-11-13T07:11:17.095Z,15.23
2017-11-13T07:13:45.761Z,14.68
2017-11-13T07:16:13.910Z,16.10
2017-11-13T07:18:42.086Z,16.20
2017-11-13T07:21:10.350Z,14.45
2017-11-13T07:23:38.513Z,17.35
2017-11-13T07:26:06.678Z,15.18
2017-11-13T07:28:34.860Z,15.07
2017-11-13T07:31:03.037Z,14.10
2017-11-13T07:33:31.233Z,14.90
2017-11-13T07:36:00.173Z,14.98
2017-11-13T07:38:28.332Z,14.27
2017-11-13T07:40:56.498Z,14.32
2017-11-13T07:43:24.639Z,15.73
2017-11-13T07:45:52.888Z,13.18
2017-11-13T07:48:21.046Z,13.20
2017-11-13T07:50:49.223Z,11.07
2017-11-13T07:53:17.388Z,13.80
2017-11-13T07:55:45.542Z,11.07
2017-11-13T07:58:13.684Z,11.65
2017-11-13T08:00:41.872Z,11.45
2017-11-13T08:03:10.883Z,13.98
2017-11-13T08:05:39.035Z,12.55
2017-11-13T08:08:07.234Z,12.35
2017-11-13T08:10:35.408Z,10.93
2017-11-13T08:13:04.514Z,12.10
2017-11-13T08:15:33.291Z,12.05
2017-11-13T08:18:01.441Z,12.70
2017-11-13T08:20:29.668Z,11.48
2017-11-13T08:22:57.979Z,10.93
2017-11-13T08:38:41.573Z,11.52
2017-11-13T08:41:09.720Z,12.37
2017-11-13T08:43:37.896Z,12.85
2017-11-13T08:46:06.057Z,12.95
2017-11-13T08:48:34.282Z,11.73
2017-11-13T08:51:02.520Z,12.23
2017-11-13T08:53:30.697Z,11.20
2017-11-13T08:55:58.840Z,12.75
2017-11-13T08:58:27.003Z,12.45
2017-11-13T09:00:55.157Z,12.10
2017-11-13T09:03:23.323Z,12.80
2017-11-13T09:05:52.255Z,12.02
2017-11-13T09:08:20.430Z,11.95
2017-11-13T09:10:49.245Z,11.77
2017-11-13T09:13:17.456Z,12.65
2017-11-13T09:15:46.422Z,10.95
2017-11-13T09:18:14.586Z,11.85
2017-11-13T09:20:42.745Z,13.07
2017-11-13T09:23:10.903Z,12.02
2017-11-13T09:25:39.179Z,11.25
2017-11-13T09:28:07.332Z,10.68
2017-11-13T09:30:35.491Z,9.43
2017-11-13T09:33:03.652Z,9.00
2017-11-13T09:35:32.689Z,8.88
2017-11-13T09:38:00.874Z,7.65
2017-11-13T09:40:29.040Z,9.25
2017-11-13T09:42:57.179Z,8.50
2017-11-13T09:45:25.347Z,8.00
2017-11-13T09:47:53.497Z,9.05
2017-11-13T09:50:22.442Z,8.45
2017-11-13T09:52:50.592Z,7.60
2017-11-13T09:55:18.740Z,9.18
2017-11-13T09:57:47.684Z,7.65
2017-11-13T10:00:21.704Z,8.73
2017-11-13T10:02:49.876Z,8.75
2017-11-13T10:05:18.033Z,9.07
2017-11-13T10:07:46.203Z,8.73
2017-11-13T10:10:14.384Z,7.90
2017-11-13T10:12:42.551Z,9.80
2017-11-13T10:15:10.716Z,8.27
2017-11-13T10:17:38.879Z,9.80
2017-11-13T10:20:07.036Z,9.47
2017-11-13T10:22:35.217Z,9.20
2017-11-13T10:25:03.368Z,9.43
2017-11-13T10:27:32.291Z,8.73
2017-11-13T10:30:00.435Z,9.73
2017-11-13T10:32:29.365Z,9.20
2017-11-13T10:34:57.544Z,9.77
2017-11-13T10:37:25.714Z,8.00
2017-11-13T10:39:53.871Z,8.65
2017-11-13T10:42:22.057Z,7.57
2017-11-13T10:44:51.143Z,8.15
2017-11-13T10:47:19.358Z,7.70
2017-11-13T10:49:47.503Z,7.53
2017-11-13T10:52:15.677Z,7.30
2017-11-13T10:54:43.856Z,6.85
2017-11-13T10:57:12.031Z,7.87
2017-11-13T10:59:40.196Z,6.95
2017-11-13T11:02:08.344Z,6.50
2017-11-13T11:04:36.519Z,7.00
2017-11-13T11:07:04.671Z,6.35
2017-11-13T11:09:33.606Z,7.00
2017-11-13T11:12:01.747Z,7.03
2017-11-13T11:14:30.634Z,6.20
2017-11-13T11:17:00.126Z,6.70
2017-11-13T11:19:31.411Z,6.25
2017-11-13T11:21:59.579Z,6.35
2017-11-13T11:24:27.743Z,6.45
2017-11-13T11:26:55.899Z,5.82
2017-11-13T11:29:29.608Z,4.72
2017-11-13T11:32:00.221Z,5.22
2017-11-13T11:34:31.527Z,5.68
2017-11-13T11:40:06.718Z,4.80
2017-11-13T11:42:35.645Z,5.70
2017-11-13T11:45:09.485Z,6.15
2017-11-13T11:47:37.632Z,5.70
2017-11-13T11:50:05.809Z,5.90
2017-11-13T11:52:33.998Z,5.70
2017-11-13T11:55:08.570Z,5.63
2017-11-13T11:57:36.719Z,4.70
2017-11-13T12:00:05.692Z,5.80
2017-11-13T12:02:33.840Z,4.70
2017-11-13T12:05:01.996Z,5.60
2017-11-13T12:07:30.187Z,4.40
2017-11-13T12:09:58.346Z,4.37
2017-11-13T12:12:26.505Z,4.40
2017-11-13T12:14:54.639Z,5.03
2017-11-13T12:17:22.803Z,4.40
2017-11-13T12:19:50.940Z,5.00
2017-11-13T12:22:19.124Z,4.30
2017-11-13T12:24:47.273Z,5.00
2017-11-13T12:27:15.446Z,3.77
2017-11-13T12:29:43.651Z,4.33
2017-11-13T12:32:11.826Z,4.63
2017-11-13T12:34:40.005Z,4.40
2017-11-13T12:37:08.171Z,5.07
2017-11-13T12:39:36.329Z,4.90
2017-11-13T12:42:04.488Z,3.90
2017-11-13T12:44:32.628Z,4.40
2017-11-13T12:47:01.564Z,4.70
2017-11-13T12:49:29.757Z,4.00
2017-11-13T12:51:57.936Z,4.70
2017-11-13T12:54:26.100Z,4.40
2017-11-13T12:56:54.249Z,4.60
2017-11-13T12:59:22.422Z,4.30
2017-11-13T13:01:50.576Z,4.00
2017-11-13T13:04:18.753Z,4.20
2017-11-13T13:06:47.026Z,3.70
2017-11-13T13:09:15.208Z,4.27
2017-11-13T13:11:43.357Z,3.97
2017-11-13T13:14:11.537Z,4.60
2017-11-13T13:16:39.717Z,3.90
2017-11-13T13:19:07.884Z,3.87
2017-11-13T13:21:36.113Z,5.20
2017-11-13T13:24:04.279Z,4.03
2017-11-13T13:26:32.457Z,4.70
2017-11-13T13:29:00.932Z,4.00
2017-11-13T13:31:29.132Z,4.13
2017-11-13T13:33:58.985Z,4.13
2017-11-13T13:36:27.387Z,4.23
2017-11-13T13:38:56.236Z,4.33
2017-11-13T13:41:24.429Z,4.00
2017-11-13T13:43:52.659Z,3.97
2017-11-13T13:46:20.822Z,3.90
2017-11-13T13:48:48.980Z,5.17
2017-11-13T13:51:17.169Z,4.00
2017-11-13T13:53:45.411Z,3.50
2017-11-13T13:56:13.659Z,4.00
2017-11-13T13:58:41.803Z,4.20
2017-11-13T14:01:10.864Z,3.20
2017-11-13T14:03:39.073Z,3.50
2017-11-13T14:06:07.996Z,3.10
2017-11-13T14:08:36.164Z,2.60
2017-11-13T14:11:04.310Z,3.30
2017-11-13T14:13:32.529Z,4.20
2017-11-13T14:16:00.679Z,3.87
2017-11-13T14:18:28.900Z,3.20
2017-11-13T14:20:57.068Z,4.10
2017-11-13T14:23:25.235Z,3.43
2017-11-13T14:25:53.376Z,3.97
2017-11-13T14:28:21.553Z,3.67
2017-11-13T14:30:50.092Z,3.50
2017-11-13T14:33:19.218Z,3.53
2017-11-13T14:35:47.476Z,3.50
2017-11-13T14:38:16.643Z,3.83
2017-11-13T14:40:44.791Z,3.13
2017-11-13T14:43:12.962Z,3.50
2017-11-13T14:45:41.107Z,3.30
2017-11-13T14:48:09.267Z,3.50
2017-11-13T14:50:38.203Z,4.13
2017-11-13T14:53:06.402Z,3.40
2017-11-13T14:55:34.565Z,3.50
2017-11-13T14:58:02.821Z,4.10
2017-11-13T15:00:30.993Z,4.37
2017-11-13T15:02:59.159Z,3.30
2017-11-13T15:05:27.335Z,4.15
2017-11-13T15:07:55.479Z,3.90
2017-11-13T15:10:23.665Z,3.30
2017-11-13T15:12:51.813Z,3.22
2017-11-13T15:15:20.338Z,4.10
2017-11-13T15:17:48.478Z,4.10
2017-11-13T15:20:16.652Z,3.78
2017-11-13T15:22:44.823Z,3.60
2017-11-13T15:25:13.019Z,3.97
2017-11-13T15:27:41.240Z,3.90
2017-11-13T15:30:09.416Z,4.12
2017-11-13T15:32:38.334Z,3.22
2017-11-13T15:35:06.505Z,4.03
2017-11-13T15:37:34.657Z,4.35
2017-11-13T15:40:03.577Z,3.50
2017-11-13T15:42:31.714Z,3.30
2017-11-13T15:45:00.667Z,3.40
2017-11-13T15:47:28.814Z,4.20
2017-11-13T15:49:56.961Z,4.62
2017-11-13T15:52:25.900Z,3.42
2017-11-13T15:54:54.066Z,3.40
2017-11-13T15:57:22.237Z,4.95
2017-11-13T15:59:50.415Z,4.18
2017-11-13T16:02:18.577Z,4.25
2017-11-13T16:04:46.718Z,3.78
2017-11-13T16:07:15.640Z,3.65
2017-11-13T16:09:43.785Z,4.45
2017-11-13T16:12:12.714Z,3.50
2017-11-13T16:14:40.856Z,3.92
2017-11-13T16:17:09.022Z,3.30
2017-11-13T16:19:37.942Z,3.55
2017-11-13T16:22:06.220Z,4.05
2017-11-13T16:24:34.375Z,3.55
2017-11-13T16:27:02.536Z,4.68
2017-11-13T16:29:30.683Z,4.80
2017-11-13T16:31:59.255Z,4.97
2017-11-13T16:34:27.414Z,3.95
2017-11-13T16:36:55.574Z,3.67
2017-11-13T16:39:23.721Z,7.68
2017-11-13T16:41:51.880Z,7.87
2017-11-13T16:44:20.024Z,4.30
2017-11-13T16:46:48.171Z,4.20
2017-11-13T16:49:16.313Z,4.15
2017-11-13T16:51:44.515Z,4.90
2017-11-13T16:54:12.915Z,4.43
2017-11-13T16:56:41.159Z,5.40
2017-11-13T16:59:09.341Z,5.50
2017-11-13T17:01:37.549Z,4.12
2017-11-13T17:04:05.751Z,4.53
2017-11-13T17:06:33.899Z,5.12
2017-11-13T17:09:02.870Z,4.80
2017-11-13T17:11:31.025Z,4.95
2017-11-13T17:13:59.172Z,4.43
2017-11-13T17:16:27.330Z,4.45
2017-11-13T17:18:55.519Z,4.53
2017-11-13T17:21:23.660Z,4.70
2017-11-13T17:23:52.586Z,4.30
2017-11-13T17:26:20.767Z,4.72
2017-11-13T17:28:48.936Z,3.90
2017-11-13T17:31:17.078Z,4.10
2017-11-13T17:33:45.246Z,4.10
2017-11-13T17:36:14.158Z,5.07
2017-11-13T17:38:42.321Z,4.47
2017-11-13T17:41:10.472Z,4.80
2017-11-13T17:43:38.638Z,4.93
2017-11-13T17:46:07.583Z,4.80
2017-11-13T17:48:35.764Z,4.25
2017-11-13T17:51:04.040Z,4.07
2017-11-13T17:53:32.953Z,4.30
2017-11-13T17:56:01.129Z,4.32
2017-11-13T17:58:29.267Z,4.85
2017-11-13T18:00:57.420Z,4.43
2017-11-13T18:03:25.564Z,4.20
2017-11-13T18:05:54.508Z,4.40
2017-11-13T18:08:22.751Z,5.22
2017-11-13T18:10:50.926Z,4.50
2017-11-13T18:13:19.094Z,3.50
2017-11-13T18:15:47.232Z,4.25
2017-11-13T18:18:15.422Z,3.78
2017-11-13T18:20:44.324Z,4.35
2017-11-13T18:23:13.250Z,3.75
2017-11-13T18:25:41.417Z,3.55
2017-11-13T18:28:09.589Z,3.50
2017-11-13T18:30:37.732Z,3.90
2017-11-13T18:33:06.776Z,3.28
2017-11-13T18:35:34.923Z,4.10
2017-11-13T18:38:03.082Z,4.03
2017-11-13T18:40:31.224Z,3.37
2017-11-13T18:42:59.383Z,3.33
2017-11-13T18:45:27.540Z,3.45
2017-11-13T18:47:55.687Z,3.25
2017-11-13T18:50:23.859Z,3.40
2017-11-13T18:52:51.996Z,5.00
2017-11-13T18:55:20.908Z,3.47
2017-11-13T18:57:49.061Z,4.70
2017-11-13T19:00:17.979Z,4.20
2017-11-13T19:02:46.121Z,4.15
2017-11-13T19:05:15.044Z,3.85
2017-11-13T19:07:43.185Z,3.95
2017-11-13T19:10:12.102Z,4.53
2017-11-13T19:12:40.302Z,4.07
2017-11-13T19:15:08.475Z,3.72
2017-11-13T19:17:36.643Z,4.28
2017-11-13T19:20:04.792Z,3.90
2017-11-13T19:22:32.988Z,4.45
2017-11-13T19:25:01.887Z,3.67
2017-11-13T19:27:30.016Z,3.75
2017-11-13T19:29:58.462Z,3.90
2017-11-13T19:32:26.624Z,4.15
2017-11-13T19:34:54.780Z,3.00
2017-11-13T19:37:22.939Z,4.85
2017-11-13T19:39:52.032Z,4.45
2017-11-13T19:42:20.744Z,3.05
2017-11-13T19:44:48.910Z,3.55
2017-11-13T19:47:17.231Z,3.40
2017-11-13T19:49:46.168Z,3.40
2017-11-13T19:52:14.332Z,3.83
2017-11-13T19:54:42.464Z,3.50
2017-11-13T19:57:11.390Z,4.95
2017-11-13T19:59:39.548Z,3.80
2017-11-13T20:02:07.722Z,4.07
2017-11-13T20:04:35.901Z,4.40
2017-11-13T20:07:04.099Z,5.47
2017-11-13T20:09:32.252Z,4.57
2017-11-13T20:12:00.402Z,4.60
2017-11-13T20:14:28.951Z,5.35
2017-11-13T20:16:57.095Z,6.28
2017-11-13T20:19:25.262Z,5.47
2017-11-13T20:21:53.399Z,4.75
2017-11-13T20:24:21.571Z,5.80
2017-11-13T20:26:49.720Z,5.80
2017-11-13T20:29:18.650Z,5.90
2017-11-13T20:31:46.800Z,5.90
2017-11-13T20:34:15.712Z,5.53
2017-11-13T20:36:43.870Z,5.97
2017-11-13T20:39:12.024Z,6.20
2017-11-13T20:41:40.944Z,7.15
2017-11-13T20:44:09.120Z,5.70
2017-11-13T20:46:37.311Z,5.50
2017-11-13T20:49:06.388Z,9.52
2017-11-13T20:51:34.551Z,5.93
2017-11-13T20:54:02.708Z,6.65
2017-11-13T20:56:31.632Z,5.72
2017-11-13T20:58:59.776Z,5.70
2017-11-13T21:01:28.707Z,5.97
2017-11-13T21:03:56.855Z,6.15
2017-11-13T21:06:25.016Z,8.07
2017-11-13T21:08:53.158Z,6.53
2017-11-13T21:11:21.310Z,8.25
2017-11-13T21:13:49.456Z,7.90
2017-11-13T21:16:17.611Z,9.77
2017-11-13T21:18:45.748Z,6.70
2017-11-13T21:21:13.912Z,7.78
2017-11-13T21:23:42.044Z,6.90
2017-11-13T21:26:10.187Z,8.32
2017-11-13T21:28:39.630Z,7.22
2017-11-13T21:31:07.797Z,7.80
2017-11-13T21:33:35.944Z,6.85
2017-11-13T21:36:04.097Z,7.20
2017-11-13T21:38:33.009Z,7.07
2017-11-13T21:41:01.178Z,6.75
2017-11-13T21:43:29.324Z,7.03
2017-11-13T21:45:57.539Z,7.07
2017-11-13T21:48:25.680Z,7.72
2017-11-13T21:50:54.601Z,8.00
2017-11-13T21:53:22.771Z,7.28
2017-11-13T21:55:50.916Z,7.37
2017-11-13T21:58:19.845Z,6.97
2017-11-13T22:00:47.997Z,8.38
2017-11-13T22:03:16.158Z,7.20
2017-11-13T22:05:45.094Z,7.32
2017-11-13T22:08:13.258Z,6.75
2017-11-13T22:10:41.456Z,7.28
2017-11-13T22:13:09.603Z,9.25
2017-11-13T22:15:37.739Z,7.40
2017-11-13T22:18:06.668Z,7.43
2017-11-13T22:20:34.802Z,6.28
2017-11-13T22:23:04.240Z,6.62
2017-11-13T22:25:32.378Z,7.07
2017-11-13T22:28:01.297Z,7.22
2017-11-13T22:30:29.465Z,7.70
2017-11-13T22:32:57.613Z,7.62
2017-11-13T22:35:26.537Z,6.78
2017-11-13T22:37:54.683Z,7.00
2017-11-13T22:40:22.848Z,7.20
2017-11-13T22:42:50.995Z,7.47
2017-11-13T22:45:19.157Z,7.32
2017-11-13T22:47:47.296Z,8.43
2017-11-13T22:50:15.496Z,8.20
2017-11-13T22:52:43.647Z,8.73
2017-11-13T22:55:11.800Z,8.18
2017-11-13T22:57:39.941Z,8.32
2017-11-13T23:00:08.117Z,8.60
2017-11-13T23:02:37.030Z,8.25
2017-11-13T23:05:05.201Z,7.53
2017-11-13T23:07:33.343Z,8.55
2017-11-13T23:10:01.482Z,9.05
2017-11-13T23:12:29.650Z,8.15
2017-11-13T23:14:57.792Z,9.25
2017-11-13T23:17:25.958Z,8.32
2017-11-13T23:19:55.374Z,7.82
2017-11-13T23:22:23.887Z,10.00
2017-11-13T23:24:52.377Z,8.20
2017-11-13T23:27:20.524Z,7.53
2017-11-13T23:29:48.669Z,8.40
2017-11-13T23:32:16.823Z,7.35
2017-11-13T23:34:45.722Z,7.55
2017-11-13T23:37:14.641Z,8.70
2017-11-13T23:39:43.194Z,7.85
2017-11-13T23:42:12.111Z,7.47
2017-11-13T23:44:40.248Z,6.82
2017-11-13T23:47:09.170Z,7.45
2017-11-13T23:49:37.319Z,8.85
2017-11-13T23:52:06.252Z,8.50
2017-11-13T23:54:37.185Z,8.07
2017-11-13T23:57:05.341Z,7.25
2017-11-13T23:59:33.494Z,8.63
